sensor_id;sensor_type;location;lat;lon;timestamp;P1;durP1;ratioP1;P2;durP2;ratioP2
13083;SDS011;6608;48.790;9.198;2023-02-24T00:02:16;128.70;;;67.03;;
13083;SDS011;6608;48.790;9.198;2023-02-24T00:04:44;129.60;;;66.77;;
13083;SDS011;6608;48.790;9.198;2023-02-24T00:07:15;133.57;;;64.57;;
13083;SDS011;6608;48.790;9.198;2023-02-24T00:09:42;137.77;;;67.83;;
13083;SDS011;6608;48.790;9.198;2023-02-24T00:12:11;128.13;;;66.47;;
13083;SDS011;6608;48.790;9.198;2023-02-24T00:14:39;128.80;;;67.00;;
13083;SDS011;6608;48.790;9.198;2023-02-24T00:17:06;132.20;;;67.43;;
13083;SDS011;6608;48.790;9.198;2023-02-24T00:19:32;128.77;;;66.33;;
13083;SDS011;6608;48.790;9.198;2023-02-24T00:22:00;129.27;;;66.30;;
13083;SDS011;6608;48.790;9.198;2023-02-24T00:24:27;132.23;;;65.93;;
13083;SDS011;6608;48.790;9.198;2023-02-24T00:26:54;131.10;;;68.10;;
13083;SDS011;6608;48.790;9.198;2023-02-24T00:29:22;136.10;;;67.47;;
13083;SDS011;6608;48.790;9.198;2023-02-24T00:31:49;130.27;;;66.90;;
13083;SDS011;6608;48.790;9.198;2023-02-24T00:34:20;133.07;;;69.20;;
13083;SDS011;6608;48.790;9.198;2023-02-24T00:36:47;133.67;;;68.77;;
13083;SDS011;6608;48.790;9.198;2023-02-24T00:39:13;131.67;;;69.20;;
13083;SDS011;6608;48.790;9.198;2023-02-24T00:41:41;134.53;;;69.67;;
13083;SDS011;6608;48.790;9.198;2023-02-24T00:44:09;133.07;;;68.47;;
13083;SDS011;6608;48.790;9.198;2023-02-24T00:46:38;131.97;;;68.40;;
13083;SDS011;6608;48.790;9.198;2023-02-24T00:49:06;134.93;;;70.33;;
13083;SDS011;6608;48.790;9.198;2023-02-24T00:51:35;132.80;;;68.57;;
13083;SDS011;6608;48.790;9.198;2023-02-24T00:54:01;132.67;;;68.30;;
13083;SDS011;6608;48.790;9.198;2023-02-24T00:56:28;132.20;;;69.70;;
13083;SDS011;6608;48.790;9.198;2023-02-24T00:58:56;133.87;;;68.50;;
13083;SDS011;6608;48.790;9.198;2023-02-24T01:01:23;132.20;;;68.20;;
13083;SDS011;6608;48.790;9.198;2023-02-24T01:03:51;126.87;;;68.10;;
13083;SDS011;6608;48.790;9.198;2023-02-24T01:06:19;133.27;;;68.37;;
13083;SDS011;6608;48.790;9.198;2023-02-24T01:08:46;134.27;;;69.00;;
13083;SDS011;6608;48.790;9.198;2023-02-24T01:11:14;132.43;;;68.53;;
13083;SDS011;6608;48.790;9.198;2023-02-24T01:13:58;136.63;;;68.93;;
13083;SDS011;6608;48.790;9.198;2023-02-24T01:16:24;132.73;;;69.07;;
13083;SDS011;6608;48.790;9.198;2023-02-24T01:18:54;133.37;;;70.50;;
13083;SDS011;6608;48.790;9.198;2023-02-24T01:21:20;133.83;;;70.10;;
13083;SDS011;6608;48.790;9.198;2023-02-24T01:23:47;129.10;;;68.53;;
13083;SDS011;6608;48.790;9.198;2023-02-24T01:26:14;134.60;;;70.07;;
13083;SDS011;6608;48.790;9.198;2023-02-24T01:28:40;130.20;;;68.43;;
13083;SDS011;6608;48.790;9.198;2023-02-24T01:31:07;129.37;;;68.77;;
13083;SDS011;6608;48.790;9.198;2023-02-24T01:33:34;130.17;;;69.60;;
13083;SDS011;6608;48.790;9.198;2023-02-24T01:36:10;132.33;;;70.03;;
13083;SDS011;6608;48.790;9.198;2023-02-24T01:38:37;131.23;;;68.10;;
13083;SDS011;6608;48.790;9.198;2023-02-24T01:41:07;133.93;;;70.13;;
13083;SDS011;6608;48.790;9.198;2023-02-24T01:46:15;130.27;;;67.43;;
13083;SDS011;6608;48.790;9.198;2023-02-24T01:48:41;127.03;;;67.13;;
13083;SDS011;6608;48.790;9.198;2023-02-24T01:51:09;128.93;;;68.10;;
13083;SDS011;6608;48.790;9.198;2023-02-24T01:53:36;128.47;;;67.10;;
13083;SDS011;6608;48.790;9.198;2023-02-24T01:56:02;127.63;;;67.37;;
13083;SDS011;6608;48.790;9.198;2023-02-24T01:58:31;126.07;;;66.03;;
13083;SDS011;6608;48.790;9.198;2023-02-24T02:00:58;127.73;;;65.77;;
13083;SDS011;6608;48.790;9.198;2023-02-24T02:03:32;129.63;;;66.23;;
13083;SDS011;6608;48.790;9.198;2023-02-24T02:05:59;127.60;;;66.97;;
13083;SDS011;6608;48.790;9.198;2023-02-24T02:08:27;127.27;;;66.80;;
13083;SDS011;6608;48.790;9.198;2023-02-24T02:10:54;127.87;;;67.90;;
13083;SDS011;6608;48.790;9.198;2023-02-24T02:13:23;127.23;;;66.80;;
13083;SDS011;6608;48.790;9.198;2023-02-24T02:15:53;132.30;;;66.90;;
13083;SDS011;6608;48.790;9.198;2023-02-24T02:18:25;129.10;;;67.00;;
13083;SDS011;6608;48.790;9.198;2023-02-24T02:20:55;129.40;;;67.10;;
13083;SDS011;6608;48.790;9.198;2023-02-24T02:23:31;132.57;;;67.17;;
13083;SDS011;6608;48.790;9.198;2023-02-24T02:26:06;126.97;;;66.57;;
13083;SDS011;6608;48.790;9.198;2023-02-24T02:28:52;128.33;;;67.20;;
13083;SDS011;6608;48.790;9.198;2023-02-24T02:31:26;130.10;;;67.07;;
13083;SDS011;6608;48.790;9.198;2023-02-24T02:34:03;131.63;;;67.33;;
13083;SDS011;6608;48.790;9.198;2023-02-24T02:36:35;130.43;;;67.37;;
13083;SDS011;6608;48.790;9.198;2023-02-24T02:39:05;128.47;;;66.97;;
13083;SDS011;6608;48.790;9.198;2023-02-24T02:41:38;127.20;;;66.50;;
13083;SDS011;6608;48.790;9.198;2023-02-24T02:44:07;131.97;;;69.17;;
13083;SDS011;6608;48.790;9.198;2023-02-24T02:46:37;130.30;;;68.27;;
13083;SDS011;6608;48.790;9.198;2023-02-24T02:49:10;131.83;;;69.30;;
13083;SDS011;6608;48.790;9.198;2023-02-24T02:51:39;129.20;;;68.07;;
13083;SDS011;6608;48.790;9.198;2023-02-24T02:54:08;129.37;;;67.70;;
13083;SDS011;6608;48.790;9.198;2023-02-24T02:56:36;127.30;;;66.97;;
13083;SDS011;6608;48.790;9.198;2023-02-24T02:59:02;131.87;;;68.23;;
13083;SDS011;6608;48.790;9.198;2023-02-24T03:01:31;132.13;;;69.20;;
13083;SDS011;6608;48.790;9.198;2023-02-24T03:03:59;129.63;;;67.83;;
13083;SDS011;6608;48.790;9.198;2023-02-24T03:06:30;131.60;;;68.87;;
13083;SDS011;6608;48.790;9.198;2023-02-24T03:08:58;128.30;;;67.57;;
13083;SDS011;6608;48.790;9.198;2023-02-24T03:11:25;130.63;;;68.67;;
13083;SDS011;6608;48.790;9.198;2023-02-24T03:13:52;128.77;;;67.23;;
13083;SDS011;6608;48.790;9.198;2023-02-24T03:16:19;132.03;;;68.50;;
13083;SDS011;6608;48.790;9.198;2023-02-24T03:18:48;129.60;;;69.40;;
13083;SDS011;6608;48.790;9.198;2023-02-24T03:21:16;126.90;;;67.83;;
13083;SDS011;6608;48.790;9.198;2023-02-24T03:23:46;130.10;;;68.43;;
13083;SDS011;6608;48.790;9.198;2023-02-24T03:26:14;138.57;;;69.80;;
13083;SDS011;6608;48.790;9.198;2023-02-24T03:28:47;130.93;;;69.60;;
13083;SDS011;6608;48.790;9.198;2023-02-24T03:31:18;130.73;;;69.43;;
13083;SDS011;6608;48.790;9.198;2023-02-24T03:33:47;134.67;;;68.90;;
13083;SDS011;6608;48.790;9.198;2023-02-24T03:36:17;128.33;;;68.20;;
13083;SDS011;6608;48.790;9.198;2023-02-24T03:38:43;128.63;;;68.17;;
13083;SDS011;6608;48.790;9.198;2023-02-24T03:41:14;130.73;;;68.50;;
13083;SDS011;6608;48.790;9.198;2023-02-24T03:43:42;131.07;;;69.27;;
13083;SDS011;6608;48.790;9.198;2023-02-24T03:46:10;129.43;;;69.63;;
13083;SDS011;6608;48.790;9.198;2023-02-24T03:48:37;132.17;;;70.10;;
13083;SDS011;6608;48.790;9.198;2023-02-24T03:51:06;131.43;;;70.23;;
13083;SDS011;6608;48.790;9.198;2023-02-24T03:53:36;132.50;;;69.87;;
13083;SDS011;6608;48.790;9.198;2023-02-24T03:56:08;133.57;;;71.17;;
13083;SDS011;6608;48.790;9.198;2023-02-24T03:58:43;135.70;;;70.47;;
13083;SDS011;6608;48.790;9.198;2023-02-24T04:01:13;129.67;;;69.67;;
13083;SDS011;6608;48.790;9.198;2023-02-24T04:03:45;135.33;;;69.60;;
13083;SDS011;6608;48.790;9.198;2023-02-24T04:06:15;129.53;;;69.70;;
13083;SDS011;6608;48.790;9.198;2023-02-24T04:08:48;134.03;;;72.07;;
13083;SDS011;6608;48.790;9.198;2023-02-24T04:11:17;132.07;;;70.37;;
13083;SDS011;6608;48.790;9.198;2023-02-24T04:13:50;130.27;;;68.93;;
13083;SDS011;6608;48.790;9.198;2023-02-24T04:16:20;133.13;;;71.23;;
13083;SDS011;6608;48.790;9.198;2023-02-24T04:18:52;133.20;;;69.83;;
13083;SDS011;6608;48.790;9.198;2023-02-24T04:21:19;134.00;;;69.80;;
13083;SDS011;6608;48.790;9.198;2023-02-24T04:23:47;140.10;;;71.63;;
13083;SDS011;6608;48.790;9.198;2023-02-24T04:26:14;133.33;;;72.20;;
13083;SDS011;6608;48.790;9.198;2023-02-24T04:28:41;135.23;;;73.13;;
13083;SDS011;6608;48.790;9.198;2023-02-24T04:31:10;143.03;;;73.33;;
13083;SDS011;6608;48.790;9.198;2023-02-24T04:33:42;136.37;;;72.10;;
13083;SDS011;6608;48.790;9.198;2023-02-24T04:36:09;142.87;;;74.17;;
13083;SDS011;6608;48.790;9.198;2023-02-24T04:38:36;142.27;;;74.67;;
13083;SDS011;6608;48.790;9.198;2023-02-24T04:41:03;141.37;;;73.87;;
13083;SDS011;6608;48.790;9.198;2023-02-24T04:43:30;142.27;;;73.73;;
13083;SDS011;6608;48.790;9.198;2023-02-24T04:45:56;142.53;;;74.67;;
13083;SDS011;6608;48.790;9.198;2023-02-24T04:48:24;141.33;;;73.87;;
13083;SDS011;6608;48.790;9.198;2023-02-24T04:50:50;142.60;;;73.70;;
13083;SDS011;6608;48.790;9.198;2023-02-24T04:53:19;141.90;;;74.60;;
13083;SDS011;6608;48.790;9.198;2023-02-24T04:55:50;138.73;;;72.90;;
13083;SDS011;6608;48.790;9.198;2023-02-24T04:58:18;137.60;;;72.97;;
13083;SDS011;6608;48.790;9.198;2023-02-24T05:00:45;138.90;;;72.67;;
13083;SDS011;6608;48.790;9.198;2023-02-24T05:03:13;141.37;;;74.33;;
13083;SDS011;6608;48.790;9.198;2023-02-24T05:05:46;141.50;;;74.17;;
13083;SDS011;6608;48.790;9.198;2023-02-24T05:08:15;139.03;;;73.40;;
13083;SDS011;6608;48.790;9.198;2023-02-24T05:10:42;140.80;;;74.10;;
13083;SDS011;6608;48.790;9.198;2023-02-24T05:13:10;140.93;;;74.03;;
13083;SDS011;6608;48.790;9.198;2023-02-24T05:15:38;138.47;;;73.10;;
13083;SDS011;6608;48.790;9.198;2023-02-24T05:18:06;141.43;;;74.23;;
13083;SDS011;6608;48.790;9.198;2023-02-24T05:20:34;143.23;;;74.57;;
13083;SDS011;6608;48.790;9.198;2023-02-24T05:23:23;146.53;;;74.97;;
13083;SDS011;6608;48.790;9.198;2023-02-24T05:25:49;141.50;;;73.90;;
13083;SDS011;6608;48.790;9.198;2023-02-24T05:28:19;143.57;;;76.80;;
13083;SDS011;6608;48.790;9.198;2023-02-24T05:30:47;145.03;;;75.03;;
13083;SDS011;6608;48.790;9.198;2023-02-24T05:33:13;145.00;;;75.33;;
13083;SDS011;6608;48.790;9.198;2023-02-24T05:35:39;141.87;;;74.63;;
13083;SDS011;6608;48.790;9.198;2023-02-24T05:38:06;143.40;;;73.17;;
13083;SDS011;6608;48.790;9.198;2023-02-24T05:40:34;142.77;;;74.23;;
13083;SDS011;6608;48.790;9.198;2023-02-24T05:43:09;141.10;;;74.80;;
13083;SDS011;6608;48.790;9.198;2023-02-24T05:45:39;143.20;;;74.33;;
13083;SDS011;6608;48.790;9.198;2023-02-24T05:48:07;140.73;;;73.83;;
13083;SDS011;6608;48.790;9.198;2023-02-24T05:50:34;141.33;;;74.37;;
13083;SDS011;6608;48.790;9.198;2023-02-24T05:53:03;146.67;;;74.23;;
13083;SDS011;6608;48.790;9.198;2023-02-24T05:55:29;142.80;;;73.03;;
13083;SDS011;6608;48.790;9.198;2023-02-24T05:57:58;143.53;;;74.80;;
13083;SDS011;6608;48.790;9.198;2023-02-24T06:00:24;139.33;;;73.93;;
13083;SDS011;6608;48.790;9.198;2023-02-24T06:02:50;141.10;;;74.60;;
13083;SDS011;6608;48.790;9.198;2023-02-24T06:05:17;143.47;;;74.53;;
13083;SDS011;6608;48.790;9.198;2023-02-24T06:07:59;140.63;;;72.70;;
13083;SDS011;6608;48.790;9.198;2023-02-24T06:10:30;140.80;;;74.50;;
13083;SDS011;6608;48.790;9.198;2023-02-24T06:12:59;147.00;;;76.93;;
13083;SDS011;6608;48.790;9.198;2023-02-24T06:15:26;147.87;;;77.70;;
13083;SDS011;6608;48.790;9.198;2023-02-24T06:17:52;145.07;;;75.17;;
13083;SDS011;6608;48.790;9.198;2023-02-24T06:20:20;148.03;;;75.67;;
13083;SDS011;6608;48.790;9.198;2023-02-24T06:22:46;147.27;;;77.10;;
13083;SDS011;6608;48.790;9.198;2023-02-24T06:25:18;143.63;;;74.43;;
13083;SDS011;6608;48.790;9.198;2023-02-24T06:27:44;147.63;;;76.90;;
13083;SDS011;6608;48.790;9.198;2023-02-24T06:30:18;146.07;;;76.30;;
13083;SDS011;6608;48.790;9.198;2023-02-24T06:32:46;149.27;;;77.13;;
13083;SDS011;6608;48.790;9.198;2023-02-24T06:35:12;158.33;;;77.00;;
13083;SDS011;6608;48.790;9.198;2023-02-24T06:37:39;148.93;;;77.47;;
13083;SDS011;6608;48.790;9.198;2023-02-24T06:40:05;150.50;;;76.60;;
13083;SDS011;6608;48.790;9.198;2023-02-24T06:42:39;152.83;;;77.67;;
13083;SDS011;6608;48.790;9.198;2023-02-24T06:45:06;149.07;;;75.40;;
13083;SDS011;6608;48.790;9.198;2023-02-24T06:47:34;148.40;;;76.57;;
13083;SDS011;6608;48.790;9.198;2023-02-24T06:50:00;152.10;;;79.00;;
13083;SDS011;6608;48.790;9.198;2023-02-24T06:52:27;147.53;;;76.10;;
13083;SDS011;6608;48.790;9.198;2023-02-24T06:54:54;148.87;;;77.43;;
13083;SDS011;6608;48.790;9.198;2023-02-24T06:57:21;148.53;;;75.73;;
13083;SDS011;6608;48.790;9.198;2023-02-24T06:59:47;147.10;;;76.57;;
13083;SDS011;6608;48.790;9.198;2023-02-24T07:02:14;151.23;;;77.80;;
13083;SDS011;6608;48.790;9.198;2023-02-24T07:04:43;151.13;;;79.07;;
13083;SDS011;6608;48.790;9.198;2023-02-24T07:07:09;148.60;;;77.63;;
13083;SDS011;6608;48.790;9.198;2023-02-24T07:09:38;153.50;;;78.47;;
13083;SDS011;6608;48.790;9.198;2023-02-24T07:12:05;144.87;;;75.90;;
13083;SDS011;6608;48.790;9.198;2023-02-24T07:14:35;155.63;;;76.93;;
13083;SDS011;6608;48.790;9.198;2023-02-24T07:17:01;153.80;;;78.87;;
13083;SDS011;6608;48.790;9.198;2023-02-24T07:19:28;154.47;;;79.83;;
13083;SDS011;6608;48.790;9.198;2023-02-24T07:21:59;152.97;;;80.40;;
13083;SDS011;6608;48.790;9.198;2023-02-24T07:24:27;156.30;;;79.03;;
13083;SDS011;6608;48.790;9.198;2023-02-24T07:27:00;156.27;;;79.33;;
13083;SDS011;6608;48.790;9.198;2023-02-24T07:29:27;158.30;;;80.33;;
13083;SDS011;6608;48.790;9.198;2023-02-24T07:31:56;152.03;;;78.73;;
13083;SDS011;6608;48.790;9.198;2023-02-24T07:34:25;151.10;;;78.60;;
13083;SDS011;6608;48.790;9.198;2023-02-24T07:36:52;157.40;;;77.80;;
13083;SDS011;6608;48.790;9.198;2023-02-24T07:39:21;157.60;;;79.33;;
13083;SDS011;6608;48.790;9.198;2023-02-24T07:41:48;156.27;;;79.07;;
13083;SDS011;6608;48.790;9.198;2023-02-24T07:44:15;159.73;;;80.30;;
13083;SDS011;6608;48.790;9.198;2023-02-24T07:46:42;156.70;;;78.43;;
13083;SDS011;6608;48.790;9.198;2023-02-24T07:49:10;158.23;;;79.40;;
13083;SDS011;6608;48.790;9.198;2023-02-24T07:51:37;160.13;;;80.40;;
13083;SDS011;6608;48.790;9.198;2023-02-24T07:54:04;156.37;;;79.50;;
13083;SDS011;6608;48.790;9.198;2023-02-24T07:56:34;163.83;;;81.77;;
13083;SDS011;6608;48.790;9.198;2023-02-24T07:59:11;167.00;;;80.40;;
13083;SDS011;6608;48.790;9.198;2023-02-24T08:01:40;158.03;;;78.43;;
13083;SDS011;6608;48.790;9.198;2023-02-24T08:04:14;161.40;;;81.10;;
13083;SDS011;6608;48.790;9.198;2023-02-24T08:06:41;163.00;;;78.93;;
13083;SDS011;6608;48.790;9.198;2023-02-24T08:09:10;161.50;;;81.17;;
13083;SDS011;6608;48.790;9.198;2023-02-24T08:11:43;167.27;;;83.10;;
13083;SDS011;6608;48.790;9.198;2023-02-24T08:14:11;161.07;;;80.53;;
13083;SDS011;6608;48.790;9.198;2023-02-24T08:16:39;177.87;;;90.07;;
13083;SDS011;6608;48.790;9.198;2023-02-24T08:19:05;179.73;;;91.90;;
13083;SDS011;6608;48.790;9.198;2023-02-24T08:21:32;171.97;;;84.30;;
13083;SDS011;6608;48.790;9.198;2023-02-24T08:24:02;167.17;;;81.17;;
13083;SDS011;6608;48.790;9.198;2023-02-24T08:26:29;168.50;;;83.77;;
13083;SDS011;6608;48.790;9.198;2023-02-24T08:28:57;169.37;;;82.63;;
13083;SDS011;6608;48.790;9.198;2023-02-24T08:31:23;166.93;;;83.03;;
13083;SDS011;6608;48.790;9.198;2023-02-24T08:33:49;162.70;;;80.53;;
13083;SDS011;6608;48.790;9.198;2023-02-24T08:36:20;163.97;;;80.97;;
13083;SDS011;6608;48.790;9.198;2023-02-24T08:38:50;157.37;;;81.20;;
13083;SDS011;6608;48.790;9.198;2023-02-24T08:41:17;163.63;;;78.30;;
13083;SDS011;6608;48.790;9.198;2023-02-24T08:43:53;156.90;;;80.30;;
13083;SDS011;6608;48.790;9.198;2023-02-24T08:46:22;157.37;;;79.87;;
13083;SDS011;6608;48.790;9.198;2023-02-24T08:48:51;165.03;;;82.13;;
13083;SDS011;6608;48.790;9.198;2023-02-24T08:51:20;158.17;;;78.63;;
13083;SDS011;6608;48.790;9.198;2023-02-24T08:53:48;168.43;;;79.40;;
13083;SDS011;6608;48.790;9.198;2023-02-24T08:56:17;164.70;;;82.40;;
13083;SDS011;6608;48.790;9.198;2023-02-24T08:58:48;160.90;;;80.93;;
13083;SDS011;6608;48.790;9.198;2023-02-24T09:01:16;158.13;;;79.37;;
13083;SDS011;6608;48.790;9.198;2023-02-24T09:03:49;163.40;;;80.37;;
13083;SDS011;6608;48.790;9.198;2023-02-24T09:06:16;156.90;;;81.67;;
13083;SDS011;6608;48.790;9.198;2023-02-24T09:08:49;157.17;;;79.87;;
13083;SDS011;6608;48.790;9.198;2023-02-24T09:11:36;160.90;;;81.03;;
13083;SDS011;6608;48.790;9.198;2023-02-24T09:14:07;154.37;;;77.57;;
13083;SDS011;6608;48.790;9.198;2023-02-24T09:16:40;149.03;;;76.00;;
13083;SDS011;6608;48.790;9.198;2023-02-24T09:19:27;162.13;;;83.07;;
13083;SDS011;6608;48.790;9.198;2023-02-24T09:22:25;151.53;;;78.20;;
13083;SDS011;6608;48.790;9.198;2023-02-24T09:24:55;159.47;;;79.17;;
13083;SDS011;6608;48.790;9.198;2023-02-24T09:27:41;151.53;;;75.77;;
13083;SDS011;6608;48.790;9.198;2023-02-24T09:30:08;143.37;;;73.70;;
13083;SDS011;6608;48.790;9.198;2023-02-24T09:32:58;145.77;;;75.73;;
13083;SDS011;6608;48.790;9.198;2023-02-24T09:35:27;149.90;;;75.03;;
13083;SDS011;6608;48.790;9.198;2023-02-24T09:37:55;145.37;;;74.13;;
13083;SDS011;6608;48.790;9.198;2023-02-24T09:40:21;140.47;;;70.80;;
13083;SDS011;6608;48.790;9.198;2023-02-24T09:43:03;141.20;;;73.90;;
13083;SDS011;6608;48.790;9.198;2023-02-24T09:45:35;145.70;;;75.53;;
13083;SDS011;6608;48.790;9.198;2023-02-24T09:48:04;201.87;;;97.87;;
13083;SDS011;6608;48.790;9.198;2023-02-24T09:50:37;140.83;;;71.83;;
13083;SDS011;6608;48.790;9.198;2023-02-24T09:53:12;145.03;;;70.87;;
13083;SDS011;6608;48.790;9.198;2023-02-24T09:55:43;139.93;;;69.63;;
13083;SDS011;6608;48.790;9.198;2023-02-24T09:58:26;137.00;;;69.00;;
13083;SDS011;6608;48.790;9.198;2023-02-24T10:00:57;140.57;;;68.87;;
13083;SDS011;6608;48.790;9.198;2023-02-24T10:03:44;143.43;;;70.80;;
13083;SDS011;6608;48.790;9.198;2023-02-24T10:06:15;141.67;;;72.40;;
13083;SDS011;6608;48.790;9.198;2023-02-24T10:08:46;147.03;;;71.10;;
13083;SDS011;6608;48.790;9.198;2023-02-24T10:11:13;143.27;;;72.90;;
13083;SDS011;6608;48.790;9.198;2023-02-24T10:13:41;145.97;;;69.57;;
13083;SDS011;6608;48.790;9.198;2023-02-24T10:16:10;144.33;;;72.30;;
13083;SDS011;6608;48.790;9.198;2023-02-24T10:18:40;137.37;;;70.07;;
13083;SDS011;6608;48.790;9.198;2023-02-24T10:21:11;135.90;;;68.03;;
13083;SDS011;6608;48.790;9.198;2023-02-24T10:23:49;145.37;;;75.90;;
13083;SDS011;6608;48.790;9.198;2023-02-24T10:26:22;138.57;;;67.93;;
13083;SDS011;6608;48.790;9.198;2023-02-24T10:28:57;140.40;;;68.57;;
13083;SDS011;6608;48.790;9.198;2023-02-24T10:31:25;135.17;;;68.17;;
13083;SDS011;6608;48.790;9.198;2023-02-24T10:33:55;133.13;;;65.53;;
13083;SDS011;6608;48.790;9.198;2023-02-24T10:36:23;128.87;;;65.37;;
13083;SDS011;6608;48.790;9.198;2023-02-24T10:39:00;134.40;;;66.77;;
13083;SDS011;6608;48.790;9.198;2023-02-24T10:41:39;131.87;;;65.40;;
13083;SDS011;6608;48.790;9.198;2023-02-24T10:44:09;135.80;;;66.03;;
13083;SDS011;6608;48.790;9.198;2023-02-24T10:46:36;133.30;;;66.73;;
13083;SDS011;6608;48.790;9.198;2023-02-24T10:49:02;132.73;;;65.47;;
13083;SDS011;6608;48.790;9.198;2023-02-24T10:51:35;137.13;;;68.43;;
13083;SDS011;6608;48.790;9.198;2023-02-24T10:54:11;133.93;;;66.90;;
13083;SDS011;6608;48.790;9.198;2023-02-24T10:56:55;134.10;;;66.67;;
13083;SDS011;6608;48.790;9.198;2023-02-24T10:59:41;131.93;;;66.63;;
13083;SDS011;6608;48.790;9.198;2023-02-24T11:02:22;140.97;;;69.80;;
13083;SDS011;6608;48.790;9.198;2023-02-24T11:04:54;145.67;;;70.90;;
13083;SDS011;6608;48.790;9.198;2023-02-24T11:07:40;142.03;;;69.97;;
13083;SDS011;6608;48.790;9.198;2023-02-24T11:10:20;141.03;;;71.33;;
13083;SDS011;6608;48.790;9.198;2023-02-24T11:12:56;144.20;;;71.73;;
13083;SDS011;6608;48.790;9.198;2023-02-24T11:15:41;143.87;;;72.73;;
13083;SDS011;6608;48.790;9.198;2023-02-24T11:18:26;150.57;;;74.20;;
13083;SDS011;6608;48.790;9.198;2023-02-24T11:20:53;154.47;;;74.47;;
13083;SDS011;6608;48.790;9.198;2023-02-24T11:23:21;147.50;;;72.13;;
13083;SDS011;6608;48.790;9.198;2023-02-24T11:25:50;159.37;;;73.73;;
13083;SDS011;6608;48.790;9.198;2023-02-24T11:28:24;144.43;;;72.07;;
13083;SDS011;6608;48.790;9.198;2023-02-24T11:30:54;144.97;;;71.43;;
13083;SDS011;6608;48.790;9.198;2023-02-24T11:33:27;144.37;;;72.07;;
13083;SDS011;6608;48.790;9.198;2023-02-24T11:35:56;149.70;;;71.67;;
13083;SDS011;6608;48.790;9.198;2023-02-24T11:38:26;150.93;;;75.87;;
13083;SDS011;6608;48.790;9.198;2023-02-24T11:40:59;156.03;;;74.80;;
13083;SDS011;6608;48.790;9.198;2023-02-24T11:43:29;147.23;;;73.23;;
13083;SDS011;6608;48.790;9.198;2023-02-24T11:45:59;146.63;;;71.13;;
13083;SDS011;6608;48.790;9.198;2023-02-24T11:48:28;143.20;;;68.47;;
13083;SDS011;6608;48.790;9.198;2023-02-24T11:50:57;143.33;;;72.00;;
13083;SDS011;6608;48.790;9.198;2023-02-24T11:53:25;143.50;;;72.30;;
13083;SDS011;6608;48.790;9.198;2023-02-24T11:55:54;147.87;;;70.43;;
13083;SDS011;6608;48.790;9.198;2023-02-24T11:58:26;142.97;;;70.80;;
13083;SDS011;6608;48.790;9.198;2023-02-24T12:00:54;142.30;;;70.13;;
13083;SDS011;6608;48.790;9.198;2023-02-24T12:03:24;144.20;;;72.07;;
13083;SDS011;6608;48.790;9.198;2023-02-24T12:05:54;150.13;;;69.73;;
13083;SDS011;6608;48.790;9.198;2023-02-24T12:08:23;142.20;;;68.97;;
13083;SDS011;6608;48.790;9.198;2023-02-24T12:10:52;147.17;;;70.83;;
13083;SDS011;6608;48.790;9.198;2023-02-24T12:13:22;142.70;;;70.57;;
13083;SDS011;6608;48.790;9.198;2023-02-24T12:15:55;144.03;;;69.37;;
13083;SDS011;6608;48.790;9.198;2023-02-24T12:18:24;137.83;;;69.73;;
13083;SDS011;6608;48.790;9.198;2023-02-24T12:20:51;143.07;;;70.83;;
13083;SDS011;6608;48.790;9.198;2023-02-24T12:23:21;139.80;;;69.63;;
13083;SDS011;6608;48.790;9.198;2023-02-24T12:25:55;140.50;;;69.33;;
13083;SDS011;6608;48.790;9.198;2023-02-24T12:28:26;142.57;;;70.37;;
13083;SDS011;6608;48.790;9.198;2023-02-24T12:31:01;142.20;;;70.43;;
13083;SDS011;6608;48.790;9.198;2023-02-24T12:33:40;142.27;;;69.83;;
13083;SDS011;6608;48.790;9.198;2023-02-24T12:36:11;140.20;;;69.70;;
13083;SDS011;6608;48.790;9.198;2023-02-24T12:38:45;138.63;;;69.33;;
13083;SDS011;6608;48.790;9.198;2023-02-24T12:41:16;157.33;;;79.20;;
13083;SDS011;6608;48.790;9.198;2023-02-24T12:43:47;137.77;;;69.10;;
13083;SDS011;6608;48.790;9.198;2023-02-24T12:46:19;147.53;;;72.07;;
13083;SDS011;6608;48.790;9.198;2023-02-24T12:51:29;144.10;;;71.60;;
13083;SDS011;6608;48.790;9.198;2023-02-24T12:54:01;132.27;;;66.03;;
13083;SDS011;6608;48.790;9.198;2023-02-24T12:56:31;133.60;;;65.57;;
13083;SDS011;6608;48.790;9.198;2023-02-24T12:59:01;134.47;;;67.27;;
13083;SDS011;6608;48.790;9.198;2023-02-24T13:01:31;141.27;;;66.30;;
13083;SDS011;6608;48.790;9.198;2023-02-24T13:04:03;139.63;;;67.53;;
13083;SDS011;6608;48.790;9.198;2023-02-24T13:06:36;134.40;;;66.23;;
13083;SDS011;6608;48.790;9.198;2023-02-24T13:09:09;134.33;;;65.77;;
13083;SDS011;6608;48.790;9.198;2023-02-24T13:11:38;142.17;;;66.20;;
13083;SDS011;6608;48.790;9.198;2023-02-24T13:14:10;139.53;;;66.17;;
13083;SDS011;6608;48.790;9.198;2023-02-24T13:16:39;137.53;;;64.83;;
13083;SDS011;6608;48.790;9.198;2023-02-24T13:19:14;131.83;;;64.10;;
13083;SDS011;6608;48.790;9.198;2023-02-24T13:21:42;136.13;;;65.03;;
13083;SDS011;6608;48.790;9.198;2023-02-24T13:24:15;142.07;;;66.53;;
13083;SDS011;6608;48.790;9.198;2023-02-24T13:26:44;134.73;;;64.13;;
13083;SDS011;6608;48.790;9.198;2023-02-24T13:29:11;136.50;;;64.10;;
13083;SDS011;6608;48.790;9.198;2023-02-24T13:31:40;127.40;;;62.10;;
13083;SDS011;6608;48.790;9.198;2023-02-24T13:34:14;127.70;;;62.10;;
13083;SDS011;6608;48.790;9.198;2023-02-24T13:36:47;128.67;;;61.33;;
13083;SDS011;6608;48.790;9.198;2023-02-24T13:39:20;128.33;;;62.63;;
13083;SDS011;6608;48.790;9.198;2023-02-24T13:41:47;132.17;;;64.03;;
13083;SDS011;6608;48.790;9.198;2023-02-24T13:44:21;131.50;;;63.13;;
13083;SDS011;6608;48.790;9.198;2023-02-24T13:46:51;132.50;;;62.53;;
13083;SDS011;6608;48.790;9.198;2023-02-24T13:49:25;134.40;;;66.40;;
13083;SDS011;6608;48.790;9.198;2023-02-24T13:51:56;138.53;;;68.97;;
13083;SDS011;6608;48.790;9.198;2023-02-24T13:54:29;148.17;;;69.07;;
13083;SDS011;6608;48.790;9.198;2023-02-24T13:57:00;144.13;;;70.33;;
13083;SDS011;6608;48.790;9.198;2023-02-24T13:59:41;143.67;;;69.10;;
13083;SDS011;6608;48.790;9.198;2023-02-24T14:02:13;142.80;;;69.60;;
13083;SDS011;6608;48.790;9.198;2023-02-24T14:04:43;143.10;;;69.87;;
13083;SDS011;6608;48.790;9.198;2023-02-24T14:07:14;145.73;;;70.20;;
13083;SDS011;6608;48.790;9.198;2023-02-24T14:09:44;145.50;;;68.77;;
13083;SDS011;6608;48.790;9.198;2023-02-24T14:12:11;149.50;;;70.10;;
13083;SDS011;6608;48.790;9.198;2023-02-24T14:14:39;146.10;;;68.90;;
13083;SDS011;6608;48.790;9.198;2023-02-24T14:17:05;141.03;;;68.10;;
13083;SDS011;6608;48.790;9.198;2023-02-24T14:19:35;136.37;;;67.47;;
13083;SDS011;6608;48.790;9.198;2023-02-24T14:22:01;152.53;;;76.87;;
13083;SDS011;6608;48.790;9.198;2023-02-24T14:24:27;137.70;;;68.07;;
13083;SDS011;6608;48.790;9.198;2023-02-24T14:26:55;140.17;;;67.43;;
13083;SDS011;6608;48.790;9.198;2023-02-24T14:29:22;147.10;;;69.80;;
13083;SDS011;6608;48.790;9.198;2023-02-24T14:31:51;131.40;;;64.53;;
13083;SDS011;6608;48.790;9.198;2023-02-24T14:34:18;139.47;;;66.70;;
13083;SDS011;6608;48.790;9.198;2023-02-24T14:36:47;140.47;;;66.33;;
13083;SDS011;6608;48.790;9.198;2023-02-24T14:39:15;131.43;;;64.90;;
13083;SDS011;6608;48.790;9.198;2023-02-24T14:41:42;133.83;;;64.53;;
13083;SDS011;6608;48.790;9.198;2023-02-24T14:44:15;132.67;;;63.43;;